»·PEaware :: N355RZ KBFI-KTIW

N355RZ :: KBFI-KTIW

FLIGHT INFORMATION

Flight Status: Arrived
Operator: Privately registered:
United States
More flights under this callsign
Pilot: Tom F. (23298)
Aircraft: MOONEY M-20 201 202 205 220 ATS MSE
(M20P)
More flights by this aircraft type
Origin: KBFI Boeing Field/King Co Intl
United States
Destination: KTIW Tacoma Narrows
United States
More flights between these airports :: More routes between these airports
Route: +NRVNA1 NRVNA SCENN
File this flight plan on PilotEdge
Remarks: Would like to fly the published miss for ILS 17 at KTIW
Altitude:
(Current/Filed)
3,000ft
Speed:
(Current/Filed)
150kts
Departed: 22-Nov-20 11:39 AM
Arrived: 22-Nov-20 12:20 PM
Distance/Time
Traveled:
1nm/0:40
Distance/Time
To Go:
Arrived

Flight Plot

Page will automatically refresh every two minutes.

Flight plan parsing failed; only flown route is shown


Map Options




Map Legend


Flown Route
Filed Route
Departure Airport
Arrival Airport
Navaid (VOR, NDB)
Fix

Horizontal Profiles

Position Reports

Time Latitude Longitude Heading Altitude Ground
Speed
22-Nov-20 11:26 47.539450 -122.307134 149 18ft 0kts
22-Nov-20 11:27 47.539450 -122.307134 149 18ft 0kts
22-Nov-20 11:28 47.539450 -122.307134 149 18ft 0kts
22-Nov-20 11:29 47.539450 -122.307134 149 18ft 0kts
22-Nov-20 11:30 47.539450 -122.307134 149 18ft 0kts
22-Nov-20 11:31 47.539450 -122.307134 149 18ft 0kts
22-Nov-20 11:32 47.539450 -122.307134 149 18ft 0kts
22-Nov-20 11:32 47.539450 -122.307134 149 18ft 0kts
22-Nov-20 11:34 47.539450 -122.307134 149 18ft 0kts
22-Nov-20 11:34 47.539450 -122.307134 149 18ft 0kts
22-Nov-20 11:36 47.539450 -122.307134 149 18ft 0kts
22-Nov-20 11:36 47.539450 -122.307134 149 18ft 0kts
22-Nov-20 11:37 47.540874 -122.309846 285 17ft 7kts
22-Nov-20 11:38 47.538139 -122.309370 151 15ft 71kts
22-Nov-20 11:39 47.514504 -122.289976 151 842ft 109kts
22-Nov-20 11:41 47.481208 -122.261554 152 1678ft 124kts
22-Nov-20 11:41 47.455357 -122.239820 151 2136ft 133kts
22-Nov-20 11:42 47.422109 -122.211909 151 2137ft 140kts
22-Nov-20 11:43 47.387328 -122.194764 219 2319ft 134kts
22-Nov-20 11:44 47.382267 -122.244800 263 3172ft 124kts
22-Nov-20 11:45 47.377233 -122.295078 262 3953ft 124kts
22-Nov-20 11:46 47.374550 -122.350167 266 3949ft 146kts
22-Nov-20 11:47 47.370394 -122.409927 264 3996ft 147kts
22-Nov-20 11:48 47.365951 -122.470109 264 3870ft 148kts
22-Nov-20 11:49 47.362522 -122.528651 267 3989ft 135kts
22-Nov-20 11:50 47.353880 -122.569912 219 3623ft 100kts
22-Nov-20 11:51 47.327912 -122.566896 186 2749ft 91kts
22-Nov-20 11:52 47.302418 -122.571607 190 1591ft 93kts
22-Nov-20 11:53 47.278719 -122.575981 190 542ft 79kts
22-Nov-20 11:54 47.252187 -122.584991 198 1536ft 99kts
22-Nov-20 11:55 47.245962 -122.616478 295 2592ft 102kts
22-Nov-20 11:56 47.256689 -122.654691 301 3631ft 99kts
22-Nov-20 11:57 47.277259 -122.691217 308 4101ft 130kts
22-Nov-20 11:58 47.309732 -122.719650 15 4009ft 168kts
22-Nov-20 11:59 47.324192 -122.657766 77 3932ft 171kts
22-Nov-20 12:00 47.343524 -122.596308 58 3900ft 162kts
22-Nov-20 12:01 47.373532 -122.551877 1 3987ft 143kts
22-Nov-20 12:02 47.415184 -122.543558 355 3957ft 147kts
22-Nov-20 12:03 47.420978 -122.584918 205 3807ft 166kts
22-Nov-20 12:04 47.383503 -122.556936 139 3951ft 164kts
22-Nov-20 12:05 47.343544 -122.560564 218 4266ft 140kts
22-Nov-20 12:06 47.351919 -122.601751 351 4008ft 161kts
22-Nov-20 12:07 47.394011 -122.595715 3 4138ft 153kts
22-Nov-20 12:08 47.421168 -122.561931 118 3697ft 167kts
22-Nov-20 12:09 47.379354 -122.556359 188 3292ft 161kts
22-Nov-20 12:10 47.350937 -122.592338 290 2702ft 151kts
22-Nov-20 12:11 47.388867 -122.604930 13 2156ft 158kts
22-Nov-20 12:12 47.425747 -122.580157 70 1900ft 150kts
22-Nov-20 12:13 47.402719 -122.551186 184 2090ft 125kts
22-Nov-20 12:14 47.374638 -122.558406 190 2237ft 82kts
22-Nov-20 12:15 47.349739 -122.560578 189 1863ft 98kts
22-Nov-20 12:16 47.324043 -122.567631 186 1339ft 89kts
22-Nov-20 12:17 47.299617 -122.572376 191 770ft 88kts
22-Nov-20 12:18 47.278485 -122.576103 190 379ft 67kts
22-Nov-20 12:19 47.268033 -122.577681 130 287ft 21kts
22-Nov-20 12:20 47.269237 -122.575560 8 281ft 0kts
22-Nov-20 12:21 47.539439 -122.307116 147 19ft 0kts
22-Nov-20 12:22 47.539439 -122.307116 147 19ft 0kts
22-Nov-20 12:23 47.539439 -122.307116 147 19ft 0kts
22-Nov-20 12:24 47.539379 -122.307095 185 21ft 0kts

Navigation Log

Ident Type
Flight plan parsing failed, navigation log unavailable